Time;durP1;ratioP1;P1;durP2;ratioP2;P2;SDS_P1;SDS_P2;PMS_P1;PMS_P2;Temp;Humidity;BMP_temperature;BMP_pressure;BME280_temperature;BME280_humidity;BME280_pressure;Samples;Min_cycle;Max_cycle;Signal;HPM_P1;HPM_P2
2022/05/27 00:00:21;;;;;;;11.32;7.43;;;;;;;25.86;58.46;101415.50;5112740;28;20055;-76
2022/05/27 00:02:50;;;;;;;11.07;6.47;;;;;;;25.86;58.58;101415.50;5114994;28;20046;-75
2022/05/27 00:05:19;;;;;;;7.63;6.43;;;;;;;25.87;58.56;101410.91;5114451;28;20483;-75
2022/05/27 00:07:46;;;;;;;7.45;5.85;;;;;;;25.87;58.34;101413.63;5114646;28;20048;-75
2022/05/27 00:10:14;;;;;;;7.03;6.28;;;;;;;25.87;58.44;101405.50;5114240;28;20066;-76
2022/05/27 00:12:42;;;;;;;9.98;6.65;;;;;;;25.87;58.39;101414.47;5114088;28;20399;-76
2022/05/27 00:15:10;;;;;;;6.70;6.00;;;;;;;25.88;58.37;101409.91;5114089;28;20478;-76
2022/05/27 00:17:37;;;;;;;6.65;5.95;;;;;;;25.87;58.53;101408.22;5114496;28;20422;-75
2022/05/27 00:20:05;;;;;;;9.18;5.97;;;;;;;25.88;58.43;101404.47;5114383;28;20048;-75
2022/05/27 00:22:32;;;;;;;9.23;7.05;;;;;;;25.87;58.38;101397.34;5114133;28;20044;-75
2022/05/27 00:24:59;;;;;;;13.30;7.10;;;;;;;25.87;58.39;101392.78;5114389;28;20055;-76
2022/05/27 00:27:27;;;;;;;9.38;6.47;;;;;;;25.88;58.62;101393.63;5114125;28;20040;-76
2022/05/27 00:29:54;;;;;;;9.13;6.63;;;;;;;25.88;58.41;101402.59;5113798;28;20043;-76
2022/05/27 00:32:29;;;;;;;9.93;6.53;;;;;;;25.88;58.51;101394.47;5113963;28;20044;-76
2022/05/27 00:34:57;;;;;;;8.07;5.95;;;;;;;25.88;58.44;101396.34;5113979;28;20040;-76
2022/05/27 00:37:26;;;;;;;12.05;6.88;;;;;;;25.88;58.54;101389.03;5113597;28;20411;-76
2022/05/27 00:39:55;;;;;;;8.02;6.53;;;;;;;25.88;58.63;101378.19;5110701;28;20047;-76
2022/05/27 00:42:23;;;;;;;8.95;6.18;;;;;;;25.89;58.43;101373.66;5113078;27;20050;-76
2022/05/27 00:44:50;;;;;;;7.70;5.95;;;;;;;25.89;58.51;101368.22;5113763;28;20047;-76
2022/05/27 00:47:22;;;;;;;6.72;6.05;;;;;;;25.89;58.17;101362.81;5114140;28;20048;-76
2022/05/27 00:49:57;;;;;;;8.20;6.43;;;;;;;25.89;58.53;101358.22;5115413;28;20051;-76
2022/05/27 00:52:31;;;;;;;8.63;6.22;;;;;;;25.89;58.52;101369.06;5113402;28;20052;-76
2022/05/27 00:55:00;;;;;;;8.45;6.45;;;;;;;25.89;58.39;101362.81;5115706;28;20048;-76
2022/05/27 00:57:35;;;;;;;8.73;6.60;;;;;;;25.89;58.18;101357.38;5115852;28;20039;-76
2022/05/27 01:00:13;;;;;;;7.47;6.38;;;;;;;25.89;58.34;101341.94;5114445;28;20391;-75
2022/05/27 01:02:40;;;;;;;10.80;6.38;;;;;;;25.89;58.36;101335.69;5114448;28;20044;-76
2022/05/27 01:05:11;;;;;;;9.27;6.78;;;;;;;25.89;58.50;101341.09;5114709;28;20044;-76
2022/05/27 01:07:38;;;;;;;8.57;6.38;;;;;;;25.88;58.48;101348.34;5114750;28;20050;-76
2022/05/27 01:10:09;;;;;;;10.10;6.85;;;;;;;25.89;58.51;101357.38;5113524;28;20047;-76
2022/05/27 01:12:51;;;;;;;9.43;6.70;;;;;;;25.88;58.34;101361.91;5112134;28;20764;-76
2022/05/27 01:15:18;;;;;;;8.80;6.85;;;;;;;25.90;58.50;101364.50;5113815;28;20403;-76
2022/05/27 01:18:01;;;;;;;8.65;6.32;;;;;;;25.89;58.49;101369.06;5113496;28;20051;-76
2022/05/27 01:20:34;;;;;;;11.07;6.75;;;;;;;25.89;58.50;101370.94;5113529;28;20396;-77
2022/05/27 01:23:38;;;;;;;7.88;6.30;;;;;;;25.89;58.68;101370.94;5113736;28;20050;-77
2022/05/27 01:26:15;;;;;;;10.77;7.05;;;;;;;25.90;58.41;101369.91;5113556;28;20043;-76
2022/05/27 01:28:46;;;;;;;9.38;6.75;;;;;;;25.89;58.53;101371.78;5113486;28;20044;-76
2022/05/27 01:31:35;;;;;;;7.85;5.80;;;;;;;25.88;58.57;101371.94;5113687;28;20509;-75
2022/05/27 01:34:20;;;;;;;10.45;6.10;;;;;;;25.89;58.50;101362.81;5112992;28;20398;-76
2022/05/27 01:37:26;;;;;;;11.25;6.78;;;;;;;25.88;58.45;101366.50;5112983;28;20051;-75
2022/05/27 01:40:12;;;;;;;6.60;5.43;;;;;;;25.89;58.39;101370.94;5049311;28;20057;-78
2022/05/27 01:42:53;;;;;;;9.38;6.38;;;;;;;25.88;58.33;101371.94;5050120;28;20618;-76
2022/05/27 01:45:58;;;;;;;7.57;6.60;;;;;;;25.89;58.29;101370.94;5054559;28;20547;-76
2022/05/27 01:48:28;;;;;;;9.45;6.25;;;;;;;25.89;58.43;101357.38;4995300;28;20118;-76
2022/05/27 01:51:04;;;;;;;9.38;6.80;;;;;;;25.87;58.46;101356.66;4994893;28;20062;-76
2022/05/27 01:53:45;;;;;;;8.57;6.45;;;;;;;25.88;58.31;101359.22;4978492;28;20066;-76
2022/05/27 01:56:39;;;;;;;8.35;6.15;;;;;;;25.88;58.28;101355.66;4978252;28;20538;-77
2022/05/27 01:59:13;;;;;;;7.10;5.50;;;;;;;25.88;58.44;101364.63;4995287;28;20537;-76
2022/05/27 02:01:50;;;;;;;10.82;6.15;;;;;;;25.89;58.52;101357.38;4995010;28;20077;-76
2022/05/27 02:04:24;;;;;;;9.25;6.18;;;;;;;25.89;58.52;101358.22;4994876;28;20058;-76
2022/05/27 02:07:05;;;;;;;10.30;6.53;;;;;;;25.89;58.49;101351.94;4995291;28;20430;-76
2022/05/27 02:09:42;;;;;;;8.48;6.85;;;;;;;25.89;58.59;101349.22;4974525;28;20058;-76
2022/05/27 02:12:17;;;;;;;10.02;6.50;;;;;;;25.89;58.62;101351.94;4975424;28;20066;-76
2022/05/27 02:14:49;;;;;;;10.35;6.75;;;;;;;25.88;58.70;101339.38;4959473;28;20062;-76
2022/05/27 02:17:22;;;;;;;9.60;6.50;;;;;;;25.88;58.46;101340.22;5028364;28;20061;-76
2022/05/27 02:20:02;;;;;;;8.48;6.43;;;;;;;25.88;58.56;101333.94;5054155;28;20071;-76
2022/05/27 02:22:32;;;;;;;8.90;6.65;;;;;;;25.88;58.56;101331.25;5054224;28;20055;-76
2022/05/27 02:25:06;;;;;;;8.18;6.13;;;;;;;25.87;58.67;101324.97;5073786;28;20491;-76
2022/05/27 02:27:50;;;;;;;6.47;5.65;;;;;;;25.88;58.54;101333.94;5096479;28;20048;-76
2022/05/27 02:30:22;;;;;;;9.77;6.88;;;;;;;25.89;58.53;101335.69;5096256;28;20055;-76
2022/05/27 02:35:07;;;;;;;9.32;6.45;;;;;;;25.88;58.52;101326.66;5096502;28;20051;-76
2022/05/27 02:35:46;;;;;;;9.43;6.87;;;;;;;25.87;58.54;101324.97;5096120;28;20055;-76
2022/05/27 02:38:13;;;;;;;6.88;6.13;;;;;;;25.87;58.39;101319.53;5094678;28;20284;-76
2022/05/27 02:40:53;;;;;;;11.88;6.07;;;;;;;25.88;58.58;101309.53;5101140;28;20051;-76
2022/05/27 02:43:53;;;;;;;7.75;5.85;;;;;;;25.88;58.59;101314.97;5114695;28;20050;-76
2022/05/27 02:47:08;;;;;;;7.47;6.10;;;;;;;25.87;58.46;101305.13;5015349;28;20045;-76
2022/05/27 02:49:45;;;;;;;6.93;5.80;;;;;;;25.88;58.54;101295.97;4973444;28;20058;-76
2022/05/27 02:52:31;;;;;;;7.68;6.28;;;;;;;25.86;58.46;101288.00;4957016;28;20055;-77
2022/05/27 02:55:20;;;;;;;10.00;6.80;;;;;;;25.88;58.28;101295.97;4972995;28;20534;-76
2022/05/27 02:57:53;;;;;;;10.35;6.05;;;;;;;25.87;58.41;101291.56;4973371;28;20059;-76
2022/05/27 03:00:27;;;;;;;12.32;6.97;;;;;;;25.87;58.28;101288.84;4973525;28;20503;-76
2022/05/27 03:02:59;;;;;;;11.80;7.22;;;;;;;25.87;58.42;101284.28;4973853;28;20065;-76
2022/05/27 03:05:41;;;;;;;8.00;6.60;;;;;;;25.87;58.44;101283.44;4973304;28;20062;-76
2022/05/27 03:08:30;;;;;;;11.73;8.05;;;;;;;25.87;58.45;101278.00;4973608;28;20163;-75
2022/05/27 03:11:21;;;;;;;9.23;6.80;;;;;;;25.87;58.20;101278.84;4957540;28;20377;-76
2022/05/27 03:13:57;;;;;;;9.27;6.70;;;;;;;25.88;58.37;101277.84;4953693;29;20062;-77
2022/05/27 03:16:33;;;;;;;15.35;6.85;;;;;;;25.88;58.22;101287.84;4938580;29;20055;-77
2022/05/27 03:19:24;;;;;;;10.18;7.30;;;;;;;25.89;58.13;101284.13;4953856;29;20067;-77
2022/05/27 03:22:13;;;;;;;10.85;6.85;;;;;;;25.89;58.18;101282.28;4953902;29;20051;-77
2022/05/27 03:24:56;;;;;;;9.73;7.25;;;;;;;25.89;58.18;101287.69;5039426;28;20048;-76
2022/05/27 03:27:57;;;;;;;8.57;6.32;;;;;;;25.89;58.12;101289.56;5092673;28;20052;-77
2022/05/27 03:30:53;;;;;;;10.50;7.35;;;;;;;25.89;58.18;101286.84;5093814;28;20046;-76
2022/05/27 03:33:44;;;;;;;10.45;7.13;;;;;;;25.91;57.78;101289.38;5051736;28;20061;-77
2022/05/27 03:36:26;;;;;;;10.57;6.53;;;;;;;25.90;58.04;101288.53;5007343;28;1255572;-77
2022/05/27 03:39:10;;;;;;;9.90;6.53;;;;;;;25.91;57.96;101294.81;5035892;28;20064;-77
2022/05/27 03:41:44;;;;;;;9.00;7.10;;;;;;;25.90;57.77;101291.25;5058121;28;20381;-76
2022/05/27 03:44:17;;;;;;;8.40;6.47;;;;;;;25.90;57.87;101302.09;5072183;28;20539;-76
2022/05/27 03:46:48;;;;;;;9.52;6.65;;;;;;;25.91;57.95;101311.09;5072654;28;20048;-76
2022/05/27 03:49:16;;;;;;;11.30;6.97;;;;;;;25.90;58.06;101310.25;5072373;28;20458;-76
2022/05/27 03:51:51;;;;;;;10.50;6.38;;;;;;;25.91;57.96;101306.50;5072853;28;20056;-76
2022/05/27 03:54:20;;;;;;;7.63;6.65;;;;;;;25.90;58.06;101302.09;5072437;28;20049;-77
2022/05/27 03:56:49;;;;;;;9.98;7.95;;;;;;;25.90;58.19;101302.09;5072117;28;20061;-76
2022/05/27 03:59:18;;;;;;;9.07;6.70;;;;;;;25.91;57.61;101306.50;5072771;28;20060;-76
2022/05/27 04:01:51;;;;;;;9.35;6.97;;;;;;;25.91;57.95;101303.78;5072126;28;20056;-76
2022/05/27 04:04:21;;;;;;;7.85;6.90;;;;;;;25.92;57.86;101310.91;5072332;28;20548;-76
2022/05/27 04:06:49;;;;;;;9.77;6.90;;;;;;;25.90;57.81;101307.53;5071298;28;20052;-76
2022/05/27 04:09:19;;;;;;;11.77;6.88;;;;;;;25.91;57.89;101317.34;5073752;28;20079;-77
2022/05/27 04:11:47;;;;;;;8.90;6.95;;;;;;;25.91;57.77;101314.63;5094014;28;20048;-77
2022/05/27 04:14:14;;;;;;;12.10;7.90;;;;;;;25.91;57.82;101305.66;5094223;28;20087;-77
2022/05/27 04:16:42;;;;;;;7.50;6.68;;;;;;;25.91;57.84;101300.22;5093922;28;20395;-77
2022/05/27 04:19:09;;;;;;;9.35;7.15;;;;;;;25.91;57.84;101294.81;5094103;28;20055;-77
2022/05/27 04:21:38;;;;;;;10.88;7.25;;;;;;;25.91;57.97;101290.22;5093788;28;20055;-77
2022/05/27 04:24:06;;;;;;;11.32;7.30;;;;;;;25.91;57.93;101298.38;5094173;28;20036;-76
2022/05/27 04:26:34;;;;;;;9.55;7.80;;;;;;;25.91;57.93;101290.22;5092906;28;20044;-76
2022/05/27 04:29:03;;;;;;;7.75;6.95;;;;;;;25.92;57.80;101282.94;5093600;28;20396;-76
2022/05/27 04:31:30;;;;;;;9.15;7.18;;;;;;;25.92;57.80;101280.22;5091994;28;20404;-76
2022/05/27 04:33:58;;;;;;;10.27;7.28;;;;;;;25.92;57.85;101283.78;5094195;28;20040;-75
2022/05/27 04:36:25;;;;;;;11.70;8.05;;;;;;;25.91;57.48;101286.66;5093238;28;20048;-78
2022/05/27 04:38:53;;;;;;;10.48;7.38;;;;;;;25.92;57.69;101297.34;5093329;28;20055;-78
2022/05/27 04:41:23;;;;;;;10.35;7.45;;;;;;;25.93;57.85;101296.34;5093980;28;20043;-76
2022/05/27 04:43:50;;;;;;;8.73;7.28;;;;;;;25.93;57.83;101301.78;5109319;28;20050;-77
2022/05/27 04:46:18;;;;;;;9.45;7.05;;;;;;;25.92;57.89;101301.94;5093604;28;20048;-77
2022/05/27 04:48:45;;;;;;;9.65;7.10;;;;;;;25.91;57.90;101295.66;5093359;28;20040;-78
2022/05/27 04:51:13;;;;;;;11.90;7.05;;;;;;;25.92;57.91;101289.22;5093619;28;20403;-77
2022/05/27 04:53:40;;;;;;;9.90;7.65;;;;;;;25.92;57.79;101286.50;5093675;28;20043;-77
2022/05/27 04:56:09;;;;;;;11.00;7.78;;;;;;;25.92;58.03;101288.34;5091908;28;20416;-77
2022/05/27 04:58:37;;;;;;;9.40;8.18;;;;;;;25.93;57.94;101296.34;5093878;28;20048;-77
2022/05/27 05:01:04;;;;;;;7.88;7.05;;;;;;;25.92;57.91;101293.78;5093318;28;20044;-77
2022/05/27 05:03:31;;;;;;;10.85;7.75;;;;;;;25.93;57.90;101299.06;5093137;28;20056;-77
2022/05/27 05:05:59;;;;;;;10.63;7.00;;;;;;;25.92;57.79;101297.34;5093466;28;20408;-76
2022/05/27 05:08:33;;;;;;;8.43;7.53;;;;;;;25.93;57.85;101304.50;5091744;28;20056;-76
2022/05/27 05:11:02;;;;;;;9.38;8.02;;;;;;;25.92;57.94;101302.78;5109919;28;20478;-76
2022/05/27 05:13:32;;;;;;;10.75;7.80;;;;;;;25.94;57.99;101305.34;5113477;28;20451;-77
2022/05/27 05:16:00;;;;;;;8.73;7.07;;;;;;;25.94;57.96;101306.19;5113992;28;20379;-78
2022/05/27 05:18:27;;;;;;;13.70;7.97;;;;;;;25.94;58.09;101308.06;5113168;28;20051;-78
2022/05/27 05:20:56;;;;;;;9.07;7.60;;;;;;;25.94;57.91;101319.75;5113381;28;20043;-78
2022/05/27 05:23:23;;;;;;;9.18;7.57;;;;;;;25.92;58.08;101313.63;5112277;28;20044;-76
2022/05/27 05:25:51;;;;;;;11.25;7.57;;;;;;;25.93;58.14;101320.78;5103602;28;20051;-77
2022/05/27 05:28:18;;;;;;;9.10;7.32;;;;;;;25.94;57.96;101318.91;5092824;28;20052;-77
2022/05/27 05:30:46;;;;;;;10.10;7.68;;;;;;;25.95;57.89;101324.16;5093326;28;20070;-77
2022/05/27 05:33:13;;;;;;;9.18;7.72;;;;;;;25.93;58.18;101315.34;5092595;28;20479;-78
2022/05/27 05:35:40;;;;;;;8.90;7.97;;;;;;;25.94;58.00;101319.75;5092510;28;20044;-77
2022/05/27 05:38:08;;;;;;;8.00;7.15;;;;;;;25.94;57.94;101310.75;5093133;28;20059;-77
2022/05/27 05:40:37;;;;;;;8.52;7.55;;;;;;;25.94;57.99;101310.75;5092943;28;20051;-77
2022/05/27 05:43:06;;;;;;;11.45;8.35;;;;;;;25.94;57.98;101317.03;5094110;28;20047;-78
2022/05/27 05:45:33;;;;;;;11.35;8.45;;;;;;;25.94;57.84;101317.03;5112249;28;20043;-78
2022/05/27 05:48:00;;;;;;;13.70;9.02;;;;;;;25.95;57.98;101316.00;5111855;28;20054;-78
2022/05/27 05:50:28;;;;;;;10.20;8.75;;;;;;;25.94;57.88;101319.75;5113244;28;20043;-78
2022/05/27 05:52:55;;;;;;;8.95;8.10;;;;;;;25.94;57.90;101321.63;5112960;28;20487;-77
2022/05/27 05:55:23;;;;;;;10.32;8.05;;;;;;;25.94;57.96;101321.63;5113000;28;20042;-77
2022/05/27 05:57:50;;;;;;;10.80;7.88;;;;;;;25.95;58.04;101321.44;5112493;28;20040;-78
2022/05/27 06:00:26;;;;;;;10.07;8.30;;;;;;;25.95;57.94;101326.03;5111012;28;20047;-78
2022/05/27 06:02:53;;;;;;;9.40;8.23;;;;;;;25.94;57.89;101327.88;5112983;28;20089;-77
2022/05/27 06:05:23;;;;;;;10.60;8.80;;;;;;;25.95;57.97;101336.88;5112798;28;20368;-77
2022/05/27 06:07:52;;;;;;;10.68;8.52;;;;;;;25.95;57.93;101332.28;5111035;28;20047;-77
2022/05/27 06:10:20;;;;;;;11.45;8.50;;;;;;;25.95;57.82;101332.28;5113151;28;20043;-77
2022/05/27 06:12:47;;;;;;;12.73;8.48;;;;;;;25.95;57.73;101326.03;5112901;28;20094;-77
2022/05/27 06:15:20;;;;;;;9.88;8.88;;;;;;;25.95;57.99;101326.03;5113596;28;20044;-77
2022/05/27 06:17:47;;;;;;;10.52;8.93;;;;;;;25.95;58.13;101335.00;5120516;28;20048;-77
2022/05/27 06:20:15;;;;;;;9.13;8.13;;;;;;;25.95;57.97;101332.28;5121855;28;20040;-77
2022/05/27 06:22:43;;;;;;;9.95;8.10;;;;;;;25.96;58.05;101331.28;5125446;28;20502;-76
2022/05/27 06:25:11;;;;;;;11.75;9.18;;;;;;;25.96;57.91;101327.72;5122852;28;20044;-78
2022/05/27 06:27:39;;;;;;;11.52;9.00;;;;;;;25.96;58.16;101333.97;5118689;28;20044;-78
2022/05/27 06:35:40;;;;;;;8.73;7.78;;;;;;;25.97;58.14;101332.13;5116583;28;20050;-79
2022/05/27 06:38:08;;;;;;;13.93;11.55;;;;;;;25.96;58.00;101328.56;5116697;28;20062;-77
2022/05/27 06:40:36;;;;;;;15.85;14.20;;;;;;;25.96;58.04;101342.13;5116407;28;20400;-76
2022/05/27 06:43:03;;;;;;;22.40;19.73;;;;;;;25.92;58.00;101335.31;5115292;28;20414;-79
2022/05/27 06:45:31;;;;;;;27.80;24.90;;;;;;;25.88;57.92;101340.22;5115837;28;20062;-79
2022/05/27 06:47:58;;;;;;;26.55;23.77;;;;;;;25.82;58.72;101346.31;5113595;28;20109;-78
2022/05/27 06:50:25;;;;;;;29.63;24.55;;;;;;;25.79;58.72;101345.78;5115501;28;20043;-77
2022/05/27 06:52:55;;;;;;;29.42;26.35;;;;;;;25.77;58.93;101347.78;5114971;28;20058;-77
2022/05/27 06:55:23;;;;;;;32.42;25.85;;;;;;;25.74;58.98;101351.66;5115824;28;20044;-78
2022/05/27 06:57:50;;;;;;;30.70;26.85;;;;;;;25.74;59.16;101348.09;5116204;28;20394;-77
2022/05/27 07:00:18;;;;;;;27.75;24.42;;;;;;;25.72;59.29;101345.53;5115455;28;20039;-75
2022/05/27 07:02:46;;;;;;;29.05;25.80;;;;;;;25.71;59.54;101341.13;5115772;28;20050;-78
2022/05/27 07:05:14;;;;;;;28.02;25.00;;;;;;;25.71;59.51;101341.13;5115707;28;20035;-78
2022/05/27 07:07:42;;;;;;;29.27;24.88;;;;;;;25.70;59.77;101346.72;5115233;28;20054;-76
2022/05/27 07:10:09;;;;;;;29.98;26.55;;;;;;;25.70;60.22;101350.28;5101747;28;20147;-77
2022/05/27 07:12:37;;;;;;;34.25;27.60;;;;;;;25.69;60.63;101345.03;5095182;28;20464;-75
2022/05/27 07:15:05;;;;;;;30.73;26.63;;;;;;;25.66;60.66;101351.63;5095334;28;20447;-78
2022/05/27 07:17:32;;;;;;;29.00;26.10;;;;;;;25.65;61.19;101347.22;5094104;28;20048;-77
2022/05/27 07:20:02;;;;;;;30.50;24.33;;;;;;;25.65;61.10;101348.06;5093745;28;20059;-77
2022/05/27 07:22:29;;;;;;;27.58;24.30;;;;;;;25.65;61.20;101339.09;5095641;28;20048;-77
2022/05/27 07:24:56;;;;;;;27.50;23.30;;;;;;;25.65;60.89;101344.50;5094831;28;20048;-77
2022/05/27 07:27:24;;;;;;;25.20;22.45;;;;;;;25.65;60.74;101341.78;5112770;28;20054;-80
2022/05/27 07:29:51;;;;;;;25.13;22.52;;;;;;;25.65;60.54;101344.50;5115566;28;20050;-79
2022/05/27 07:32:19;;;;;;;25.30;21.65;;;;;;;25.65;60.22;101345.34;5115551;28;20043;-78
2022/05/27 07:34:47;;;;;;;26.65;19.58;;;;;;;25.68;60.24;101335.19;5113891;28;20419;-78
2022/05/27 07:37:14;;;;;;;22.60;20.17;;;;;;;25.69;59.51;101332.31;5115434;28;20063;-75
2022/05/27 07:39:41;;;;;;;19.35;17.45;;;;;;;25.70;59.40;101335.88;5113764;28;20051;-77
2022/05/27 07:42:09;;;;;;;20.05;16.88;;;;;;;25.72;59.37;101344.69;5112827;28;20375;-82
2022/05/27 07:44:36;;;;;;;17.60;15.75;;;;;;;25.73;59.57;101344.53;5114878;28;20117;-77
2022/05/27 07:47:05;;;;;;;20.23;16.85;;;;;;;25.76;59.55;101343.34;5114375;28;20479;-77
2022/05/27 07:49:33;;;;;;;23.45;16.65;;;;;;;25.78;59.51;101344.09;5115387;28;20055;-78
2022/05/27 07:52:02;;;;;;;17.67;15.65;;;;;;;25.78;59.75;101344.94;5115743;28;20510;-77
2022/05/27 07:54:30;;;;;;;19.65;17.65;;;;;;;25.79;59.95;101330.34;5115491;28;20043;-77
2022/05/27 07:56:58;;;;;;;21.60;18.67;;;;;;;25.78;60.22;101344.94;5115224;28;20047;-78
2022/05/27 07:59:27;;;;;;;25.98;19.10;;;;;;;25.82;60.06;101345.47;5115148;28;20507;-78
2022/05/27 08:01:54;;;;;;;20.58;18.15;;;;;;;25.81;60.10;101341.91;5115577;28;20047;-76
2022/05/27 08:04:22;;;;;;;23.50;18.95;;;;;;;25.80;59.94;101340.19;5115453;28;20047;-77
2022/05/27 08:06:49;;;;;;;20.58;18.40;;;;;;;25.80;59.77;101342.06;5116582;28;20502;-79
2022/05/27 08:09:17;;;;;;;21.60;16.90;;;;;;;25.79;59.45;101340.34;5116105;28;20051;-77
2022/05/27 08:11:44;;;;;;;19.52;17.30;;;;;;;25.79;59.58;101345.78;5116573;28;20066;-78
2022/05/27 08:14:11;;;;;;;19.52;17.13;;;;;;;25.79;58.89;101337.66;5115561;28;20399;-77
2022/05/27 08:16:41;;;;;;;21.23;15.55;;;;;;;25.77;58.93;101329.69;5112386;28;20502;-77
2022/05/27 08:19:09;;;;;;;16.52;14.85;;;;;;;25.78;58.98;101334.09;5114062;28;20411;-79
2022/05/27 08:21:37;;;;;;;19.20;17.10;;;;;;;25.79;58.46;101326.78;5114976;28;20055;-77
2022/05/27 08:24:08;;;;;;;22.67;17.33;;;;;;;25.78;57.88;101323.25;5114335;28;20060;-77
2022/05/27 08:26:40;;;;;;;20.48;16.33;;;;;;;25.77;57.51;101318.84;5115766;28;20051;-80
2022/05/27 08:29:08;;;;;;;19.33;15.43;;;;;;;25.76;57.27;101313.53;5115322;28;20043;-78
2022/05/27 08:31:37;;;;;;;22.92;14.60;;;;;;;25.78;57.33;101319.69;5114194;28;20051;-80
2022/05/27 08:39:46;;;;;;;17.13;13.65;;;;;;;25.80;57.96;101312.22;5114749;28;20514;-79
2022/05/27 08:42:47;;;;;;;18.52;16.38;;;;;;;25.80;57.96;101304.94;5114963;28;20056;-80
2022/05/27 08:45:26;;;;;;;17.50;15.02;;;;;;;25.81;57.88;101305.81;5051614;28;20448;-77
2022/05/27 08:47:58;;;;;;;19.90;16.25;;;;;;;25.82;57.32;101302.06;5050963;28;20144;-77
2022/05/27 08:50:47;;;;;;;16.47;14.20;;;;;;;25.82;57.48;101307.50;5051292;28;20061;-78
2022/05/27 08:53:45;;;;;;;15.02;13.10;;;;;;;25.84;57.59;101308.16;5051598;28;20056;-76
2022/05/27 08:59:40;;;;;;;17.25;13.88;;;;;;;25.86;57.02;101289.88;5031863;28;20413;-78
2022/05/27 09:02:33;;;;;;;16.80;12.90;;;;;;;25.88;56.98;101288.69;5014407;28;20064;-80
2022/05/27 09:05:27;;;;;;;17.23;11.65;;;;;;;25.90;57.08;101288.53;5032351;28;20049;-79
2022/05/27 09:08:19;;;;;;;13.52;11.60;;;;;;;25.92;57.36;101289.22;4972831;28;20062;-78
2022/05/27 09:11:07;;;;;;;17.65;12.85;;;;;;;25.94;57.53;101295.34;4971798;28;20050;-78
2022/05/27 09:13:46;;;;;;;13.90;10.75;;;;;;;25.95;57.44;101286.16;4957013;28;20541;-78
2022/05/27 09:16:20;;;;;;;13.25;10.40;;;;;;;25.97;57.76;101289.59;4972858;28;20407;-78
2022/05/27 09:19:02;;;;;;;13.98;11.55;;;;;;;25.99;57.88;101282.13;4973709;28;20070;-81
2022/05/27 09:21:57;;;;;;;13.65;10.93;;;;;;;26.02;57.82;101280.94;4982916;28;20049;-81
2022/05/27 09:24:47;;;;;;;17.02;11.93;;;;;;;26.05;57.57;101270.63;5011018;28;20050;-80
2022/05/27 09:27:26;;;;;;;15.68;10.20;;;;;;;26.06;57.49;101275.03;5002859;28;20086;-81
2022/05/27 09:30:01;;;;;;;14.55;11.52;;;;;;;26.09;56.32;101271.97;4991823;28;20548;-79
2022/05/27 09:32:34;;;;;;;15.70;10.55;;;;;;;26.11;56.47;101267.22;4991587;28;20545;-80
2022/05/27 09:35:10;;;;;;;11.60;10.38;;;;;;;26.13;56.38;101267.94;4995710;28;20049;-80
2022/05/27 09:38:01;;;;;;;13.52;10.43;;;;;;;26.13;56.58;101257.06;5013878;28;20057;-80
2022/05/27 09:40:35;;;;;;;12.15;9.25;;;;;;;26.14;56.44;101266.91;5014958;28;20069;-81
2022/05/27 09:43:12;;;;;;;13.45;9.35;;;;;;;26.14;55.89;101268.78;5031409;28;20057;-81
2022/05/27 09:45:40;;;;;;;13.50;9.65;;;;;;;26.13;55.38;101264.38;5077796;28;20060;-80
2022/05/27 09:48:10;;;;;;;13.40;9.20;;;;;;;26.13;55.46;101258.94;5103723;28;20055;-81
2022/05/27 09:50:44;;;;;;;11.63;8.82;;;;;;;26.14;55.65;101249.78;5112868;28;20047;-79
2022/05/27 09:53:17;;;;;;;14.60;9.10;;;;;;;26.13;55.29;101251.63;5113610;28;20044;-87
2022/05/27 09:56:04;;;;;;;9.60;7.50;;;;;;;26.14;54.48;101255.19;5112192;28;20483;-78
2022/05/27 09:58:40;;;;;;;11.32;7.38;;;;;;;26.15;54.22;101256.88;5113221;28;20403;-79
2022/05/27 10:01:21;;;;;;;10.07;6.32;;;;;;;26.13;52.01;101248.94;5113280;28;20048;-75
2022/05/27 10:04:00;;;;;;;13.32;7.28;;;;;;;26.12;51.93;101243.66;5111996;28;20051;-78
2022/05/27 10:06:29;;;;;;;9.23;6.75;;;;;;;26.13;52.67;101239.94;5117075;28;20374;-76
2022/05/27 10:08:59;;;;;;;6.97;6.15;;;;;;;26.13;53.16;101237.22;5116208;27;20052;-77
2022/05/27 10:11:26;;;;;;;12.95;6.15;;;;;;;26.14;52.18;101242.47;5117387;28;20048;-77
2022/05/27 10:14:32;;;;;;;8.52;6.55;;;;;;;26.21;51.38;101239.06;5102867;28;20051;-77
2022/05/27 10:17:08;;;;;;;8.05;5.60;;;;;;;26.28;51.58;101234.69;5109820;28;20054;-76
2022/05/27 10:19:48;;;;;;;13.13;6.00;;;;;;;26.26;51.85;101224.00;5116898;28;20043;-77
2022/05/27 10:22:28;;;;;;;11.85;6.43;;;;;;;26.24;51.08;101211.63;5117179;28;20043;-77
2022/05/27 10:25:05;;;;;;;9.82;6.97;;;;;;;26.22;51.37;101206.38;5117222;28;20047;-84
2022/05/27 10:27:37;;;;;;;8.25;5.75;;;;;;;26.20;51.77;101205.66;5116092;28;20507;-77
2022/05/27 10:30:28;;;;;;;9.32;6.63;;;;;;;26.20;52.57;101208.38;5116783;28;20442;-77
2022/05/27 10:33:11;;;;;;;8.57;7.05;;;;;;;26.19;52.74;101205.84;5116329;28;20519;-76
2022/05/27 10:35:38;;;;;;;10.90;6.72;;;;;;;26.18;52.75;101194.16;5103260;28;20056;-80
2022/05/27 10:38:18;;;;;;;12.25;6.53;;;;;;;26.20;51.75;101192.09;5095726;28;20565;-75
2022/05/27 10:40:54;;;;;;;11.77;6.82;;;;;;;26.33;50.71;101186.16;5095000;28;20403;-78
2022/05/27 10:43:41;;;;;;;10.77;6.55;;;;;;;26.35;50.59;101189.56;5096923;28;20138;-77
2022/05/27 10:46:15;;;;;;;9.70;6.13;;;;;;;26.37;49.38;101188.41;5096121;28;20048;-76
2022/05/27 10:49:01;;;;;;;11.93;6.25;;;;;;;26.41;49.93;101180.72;5102917;28;20043;-81
2022/05/27 10:51:55;;;;;;;9.48;5.57;;;;;;;26.44;50.06;101185.81;5116880;28;20044;-84
2022/05/27 10:54:44;;;;;;;10.98;5.50;;;;;;;26.78;46.33;101182.06;5115721;28;20058;-78
2022/05/27 11:03:17;;;;;;;9.50;6.20;;;;;;;26.83;45.97;101177.84;5115889;28;19927;-79
2022/05/27 11:06:09;;;;;;;13.15;5.82;;;;;;;26.74;47.70;101176.16;5115569;27;20047;-80
2022/05/27 11:08:59;;;;;;;9.30;5.47;;;;;;;26.68;48.36;101162.41;5117298;27;20058;-75
2022/05/27 11:12:03;;;;;;;8.90;5.45;;;;;;;26.61;48.96;101154.09;5115498;28;20415;-78
2022/05/27 11:15:11;;;;;;;8.20;4.70;;;;;;;26.55;49.27;101150.22;5116231;28;20394;-82
2022/05/27 11:17:51;;;;;;;9.15;4.80;;;;;;;26.52;49.84;101150.56;5114771;28;20047;-80
2022/05/27 11:20:45;;;;;;;6.35;5.00;;;;;;;26.50;50.40;101139.03;5115439;28;20403;-77
2022/05/27 11:23:34;;;;;;;9.13;5.05;;;;;;;26.48;51.02;101132.06;5115737;28;20043;-79
2022/05/27 11:26:26;;;;;;;5.82;5.10;;;;;;;26.48;50.61;101127.50;5114857;28;20070;-81
2022/05/27 11:29:31;;;;;;;6.18;5.10;;;;;;;26.47;51.75;101123.09;5100875;28;20051;-77
2022/05/27 11:32:19;;;;;;;11.60;5.88;;;;;;;26.50;52.01;101117.31;5032468;28;20057;-76
2022/05/27 11:35:13;;;;;;;9.00;5.30;;;;;;;26.49;52.05;101112.88;5016835;28;20061;-77
2022/05/27 11:37:49;;;;;;;10.85;5.95;;;;;;;26.49;52.47;101107.44;5033403;28;20061;-76
2022/05/27 11:40:38;;;;;;;10.40;4.78;;;;;;;26.47;52.86;101101.38;5033571;28;20057;-77
2022/05/27 11:43:11;;;;;;;8.98;5.80;;;;;;;26.58;52.59;101095.56;5017033;28;20068;-77
2022/05/27 11:45:51;;;;;;;11.48;5.45;;;;;;;26.54;52.88;101086.09;5016178;28;20409;-77
2022/05/27 11:48:36;;;;;;;10.93;5.50;;;;;;;26.56;52.62;101085.91;5033980;28;20102;-76
2022/05/27 11:51:12;;;;;;;15.98;6.57;;;;;;;26.63;50.83;101084.19;5028811;28;20052;-77
2022/05/27 11:54:08;;;;;;;8.93;5.65;;;;;;;26.81;50.27;101068.50;5036182;28;20056;-78
2022/05/27 11:56:54;;;;;;;11.20;6.32;;;;;;;27.05;48.32;101072.13;5052238;28;20056;-82
2022/05/27 11:59:34;;;;;;;10.75;7.13;;;;;;;27.25;47.31;101067.16;5052960;28;20053;-77
2022/05/27 12:02:13;;;;;;;10.43;5.78;;;;;;;27.17;47.27;101053.59;5052206;28;20158;-77
2022/05/27 12:05:12;;;;;;;10.40;6.13;;;;;;;27.28;46.96;101051.31;5034029;28;20053;-78
2022/05/27 12:07:51;;;;;;;9.40;6.07;;;;;;;27.35;45.95;101046.88;5069095;28;20059;-80
2022/05/27 12:10:44;;;;;;;9.38;6.43;;;;;;;27.38;47.58;101036.66;5094011;28;20480;-77
2022/05/27 12:13:26;;;;;;;11.40;6.70;;;;;;;27.54;46.78;101031.94;5094177;28;20052;-79
2022/05/27 12:16:02;;;;;;;12.73;6.43;;;;;;;27.49;47.46;101030.81;5094407;28;20044;-76